Time;durP1;ratioP1;P1;durP2;ratioP2;P2;SDS_P1;SDS_P2;PMS_P1;PMS_P2;Temp;Humidity;BMP_temperature;BMP_pressure;BME280_temperature;BME280_humidity;BME280_pressure;Samples;Min_cycle;Max_cycle;Signal;HPM_P1;HPM_P2
2021/06/13 00:02:57;;;;;;;8.67;3.80;;;;;;;20.56;47.31;98551.56;8431183;28;20198;-64
2021/06/13 00:07:00;;;;;;;8.57;3.80;;;;;;;20.49;47.62;98554.66;8416356;28;20224;-64
2021/06/13 00:11:03;;;;;;;7.13;3.87;;;;;;;20.39;48.37;98560.72;8416247;28;20235;-64
2021/06/13 00:15:08;;;;;;;11.67;3.97;;;;;;;20.39;48.49;98558.09;8416367;28;20199;-63
2021/06/13 00:19:12;;;;;;;10.97;3.63;;;;;;;20.33;48.20;98564.66;8415841;28;20223;-63
2021/06/13 00:23:14;;;;;;;5.97;3.87;;;;;;;20.34;48.20;98568.97;8416243;28;20202;-63
2021/06/13 00:27:17;;;;;;;7.00;3.70;;;;;;;20.19;48.59;98572.75;8415860;28;20200;-63
2021/06/13 00:31:19;;;;;;;7.17;3.50;;;;;;;20.22;48.56;98575.13;8415723;28;20210;-63
2021/06/13 00:35:24;;;;;;;8.07;3.80;;;;;;;20.11;47.96;98579.41;8415738;28;20199;-63
2021/06/13 00:39:26;;;;;;;6.43;3.40;;;;;;;20.14;47.81;98586.22;8415885;28;20234;-62
2021/06/13 00:43:28;;;;;;;9.27;3.20;;;;;;;20.07;48.06;98587.66;8415784;28;20199;-63
2021/06/13 00:47:31;;;;;;;11.27;3.07;;;;;;;20.10;47.71;98590.03;8415756;28;20203;-63
2021/06/13 00:51:35;;;;;;;8.53;3.03;;;;;;;20.07;47.45;98593.75;8415431;28;20516;-63
2021/06/13 00:55:38;;;;;;;9.37;3.33;;;;;;;20.02;47.48;98595.03;8415373;28;20198;-63
2021/06/13 00:59:40;;;;;;;10.37;3.20;;;;;;;19.83;47.75;98596.34;8415169;28;20226;-63
2021/06/13 01:03:43;;;;;;;6.53;3.27;;;;;;;19.88;47.81;98601.28;8431412;28;20369;-63
2021/06/13 01:07:48;;;;;;;8.30;2.90;;;;;;;19.85;47.14;98591.00;8448370;28;20218;-63
2021/06/13 01:11:55;;;;;;;7.17;2.97;;;;;;;19.85;47.45;98591.81;8448787;28;20238;-63
2021/06/13 01:16:03;;;;;;;9.30;3.17;;;;;;;19.68;48.05;98600.88;8448461;28;20512;-63
2021/06/13 01:20:19;;;;;;;8.53;3.53;;;;;;;19.56;48.56;98590.44;8448165;28;20336;-63
2021/06/13 01:24:27;;;;;;;8.03;2.97;;;;;;;19.58;48.31;98591.16;8448126;28;20198;-63
2021/06/13 01:28:54;;;;;;;7.20;3.20;;;;;;;19.48;48.40;98591.81;8448819;28;20183;-63
2021/06/13 01:32:57;;;;;;;5.67;2.67;;;;;;;19.52;48.23;98593.28;8448452;28;20211;-63
2021/06/13 01:37:00;;;;;;;10.93;2.93;;;;;;;19.36;48.52;98597.91;8448300;28;20404;-63
2021/06/13 01:41:05;;;;;;;9.57;3.07;;;;;;;19.23;49.17;98603.22;8449776;28;20230;-63
2021/06/13 01:45:12;;;;;;;6.20;3.03;;;;;;;19.33;48.63;98601.63;8454583;28;20198;-63
2021/06/13 01:49:16;;;;;;;6.60;2.87;;;;;;;19.42;48.67;98600.13;8454895;28;20202;-63
2021/06/13 01:53:19;;;;;;;5.67;2.60;;;;;;;19.39;48.51;98591.63;8454580;28;20473;-63
2021/06/13 01:57:22;;;;;;;5.40;2.83;;;;;;;19.31;48.81;98597.44;8454383;28;20236;-63
2021/06/13 02:01:27;;;;;;;8.53;3.03;;;;;;;19.22;49.06;98600.69;8454063;28;20520;-63
2021/06/13 02:05:30;;;;;;;8.90;3.03;;;;;;;19.20;49.25;98600.78;8453698;28;20237;-63
2021/06/13 02:09:33;;;;;;;6.57;3.07;;;;;;;19.16;49.47;98612.47;8453997;28;20484;-63
2021/06/13 02:13:37;;;;;;;7.90;3.10;;;;;;;19.09;49.46;98614.66;8453299;28;20198;-63
2021/06/13 02:17:44;;;;;;;6.70;2.57;;;;;;;19.10;49.01;98611.09;8453472;28;20386;-63
2021/06/13 02:21:48;;;;;;;8.67;2.57;;;;;;;18.92;48.99;98613.22;8453480;28;20223;-63
2021/06/13 02:25:52;;;;;;;8.27;2.93;;;;;;;18.98;48.93;98618.97;8452995;28;20527;-63
2021/06/13 02:29:55;;;;;;;10.43;2.80;;;;;;;18.92;49.03;98618.47;8453210;28;20543;-63
2021/06/13 02:33:59;;;;;;;5.40;2.40;;;;;;;18.86;49.20;98626.72;8452682;28;20210;-63
2021/06/13 02:38:02;;;;;;;10.77;2.97;;;;;;;18.73;49.05;98620.59;8452837;28;20485;-63
2021/06/13 02:42:05;;;;;;;4.70;2.37;;;;;;;18.88;49.04;98630.09;8452872;28;20253;-66
2021/06/13 02:46:08;;;;;;;7.23;2.70;;;;;;;18.75;49.36;98631.81;8452522;28;20203;-64
2021/06/13 02:50:12;;;;;;;5.67;2.40;;;;;;;18.78;48.86;98646.53;8452886;28;20566;-63
2021/06/13 02:54:15;;;;;;;7.73;2.90;;;;;;;18.61;49.77;98643.25;8450778;28;20206;-64
2021/06/13 02:58:32;;;;;;;8.73;2.53;;;;;;;18.59;49.71;98639.06;8452014;28;20199;-63
2021/06/13 03:02:35;;;;;;;5.93;2.27;;;;;;;18.42;50.08;98642.78;8451783;28;20222;-63
2021/06/13 03:06:39;;;;;;;8.67;2.80;;;;;;;18.39;50.53;98648.22;8451809;28;20230;-63
2021/06/13 03:10:42;;;;;;;7.43;2.60;;;;;;;18.31;50.17;98654.81;8451768;28;20413;-63
2021/06/13 03:14:45;;;;;;;5.57;2.37;;;;;;;18.34;50.51;98653.78;8451668;28;20214;-63
2021/06/13 03:18:50;;;;;;;7.20;2.10;;;;;;;18.47;50.18;98659.91;8451455;28;20202;-63
2021/06/13 03:22:55;;;;;;;6.63;2.37;;;;;;;18.32;49.95;98664.38;8451278;28;20392;-63
2021/06/13 03:26:58;;;;;;;5.93;2.20;;;;;;;18.45;49.09;98674.91;8451424;28;20203;-63
2021/06/13 03:31:01;;;;;;;7.43;2.43;;;;;;;18.26;49.02;98675.25;8451497;28;20209;-63
2021/06/13 03:35:06;;;;;;;7.57;2.23;;;;;;;18.24;49.13;98671.91;8451275;28;20209;-63
2021/06/13 03:39:10;;;;;;;7.13;2.10;;;;;;;18.22;48.94;98679.03;8450807;28;20198;-63
2021/06/13 03:43:13;;;;;;;8.07;2.20;;;;;;;18.25;49.06;98676.19;8450795;28;20230;-63
2021/06/13 03:47:17;;;;;;;5.27;2.00;;;;;;;18.18;48.89;98669.66;8450400;28;20205;-63
2021/06/13 03:51:21;;;;;;;8.43;2.50;;;;;;;18.23;48.92;98680.69;8450426;28;20205;-63
2021/06/13 03:55:25;;;;;;;7.03;2.30;;;;;;;18.22;48.58;98686.88;8450174;28;20206;-63
2021/06/13 03:59:29;;;;;;;7.10;2.07;;;;;;;17.94;48.57;98687.81;8450277;28;20199;-63
2021/06/13 04:03:33;;;;;;;10.03;2.63;;;;;;;17.98;49.16;98694.53;8449827;28;20229;-62
2021/06/13 04:07:37;;;;;;;6.00;2.37;;;;;;;18.14;48.36;98699.63;8450030;28;20218;-63
2021/06/13 04:11:42;;;;;;;9.47;2.40;;;;;;;18.14;48.13;98699.63;8449576;28;20230;-63
2021/06/13 04:15:45;;;;;;;9.30;2.20;;;;;;;18.15;48.46;98703.94;8449680;28;20199;-63
2021/06/13 04:19:48;;;;;;;6.17;1.97;;;;;;;18.18;48.25;98706.34;8449480;28;20229;-63
2021/06/13 04:23:52;;;;;;;4.97;2.00;;;;;;;18.10;48.93;98719.94;8449414;28;20198;-63
2021/06/13 04:27:57;;;;;;;6.10;2.30;;;;;;;18.12;48.68;98728.56;8449301;28;20204;-63
2021/06/13 04:32:00;;;;;;;5.17;2.20;;;;;;;18.11;48.86;98728.69;8448980;28;20221;-63
2021/06/13 04:36:03;;;;;;;5.83;2.20;;;;;;;18.18;48.62;98724.69;8418061;28;20512;-63
2021/06/13 04:40:10;;;;;;;11.23;2.50;;;;;;;18.07;48.50;98735.06;8386581;28;20230;-63
2021/06/13 04:44:14;;;;;;;8.40;2.60;;;;;;;18.01;48.83;98738.03;8382433;28;20393;-63
2021/06/13 04:48:19;;;;;;;8.67;2.47;;;;;;;18.05;48.08;98743.00;8381791;28;20502;-63
2021/06/13 04:52:24;;;;;;;6.17;2.17;;;;;;;18.17;48.48;98750.09;8381995;28;20299;-63
2021/06/13 04:56:34;;;;;;;5.53;2.20;;;;;;;18.06;48.36;98755.16;8381962;28;20464;-63
2021/06/13 05:00:38;;;;;;;8.53;2.63;;;;;;;18.13;48.51;98753.84;8395562;28;20219;-63
2021/06/13 05:04:41;;;;;;;12.00;2.70;;;;;;;18.16;47.60;98752.78;8398538;28;20207;-63
2021/06/13 05:08:44;;;;;;;6.90;2.50;;;;;;;18.32;47.80;98750.91;8397532;28;20545;-63
2021/06/13 05:12:48;;;;;;;7.33;2.67;;;;;;;18.34;46.95;98756.06;8397803;28;20211;-63
2021/06/13 05:16:52;;;;;;;8.33;2.80;;;;;;;18.51;47.13;98754.97;8400395;28;20398;-63
2021/06/13 05:20:55;;;;;;;6.03;2.50;;;;;;;18.47;46.75;98763.97;8404486;28;20223;-63
2021/06/13 05:24:58;;;;;;;7.43;2.60;;;;;;;18.36;46.37;98769.91;8404475;28;20274;-63
2021/06/13 05:29:02;;;;;;;8.70;2.73;;;;;;;18.20;47.27;98771.78;8403802;28;20191;-63
2021/06/13 05:33:06;;;;;;;8.87;2.93;;;;;;;18.37;46.53;98776.81;8417214;28;20498;-63
2021/06/13 05:37:09;;;;;;;9.53;2.53;;;;;;;18.46;46.92;98783.25;8421291;28;20216;-63
2021/06/13 05:41:13;;;;;;;11.87;2.60;;;;;;;18.73;47.10;98778.88;8420942;28;20388;-63
2021/06/13 05:45:16;;;;;;;7.37;3.00;;;;;;;18.85;46.37;98787.75;8420561;28;20199;-63
2021/06/13 05:49:20;;;;;;;7.00;2.90;;;;;;;18.94;45.57;98791.53;8420807;28;20256;-63
2021/06/13 05:53:23;;;;;;;8.23;2.50;;;;;;;18.85;46.15;98803.50;8406262;28;20204;-63
2021/06/13 05:57:31;;;;;;;11.27;3.03;;;;;;;18.90;46.37;98808.44;8387517;28;20211;-63
2021/06/13 06:01:33;;;;;;;12.97;2.83;;;;;;;18.90;45.50;98816.31;8387194;28;20229;-63
2021/06/13 06:05:38;;;;;;;9.63;2.93;;;;;;;19.27;45.19;98822.63;8450582;28;20233;-63
2021/06/13 06:09:41;;;;;;;12.13;3.43;;;;;;;19.37;45.18;98822.00;8453764;28;20234;-63
2021/06/13 06:13:44;;;;;;;8.47;3.13;;;;;;;19.33;44.86;98821.38;8453674;28;20520;-63
2021/06/13 06:17:47;;;;;;;10.57;2.77;;;;;;;19.52;44.70;98820.97;8453373;28;20206;-63
2021/06/13 06:21:52;;;;;;;10.30;3.00;;;;;;;19.62;44.34;98827.28;8453260;28;20377;-63
2021/06/13 06:25:55;;;;;;;9.30;3.40;;;;;;;19.54;44.04;98817.28;8453265;28;20414;-63
2021/06/13 06:29:57;;;;;;;10.97;3.30;;;;;;;19.81;44.96;98824.28;8452616;28;20205;-63
2021/06/13 06:34:00;;;;;;;8.47;2.87;;;;;;;19.84;42.65;98826.69;8452923;28;20216;-62
2021/06/13 06:38:05;;;;;;;12.23;3.27;;;;;;;19.87;42.53;98829.09;8452990;28;20198;-63
2021/06/13 06:42:08;;;;;;;10.00;2.93;;;;;;;20.16;42.72;98826.22;8452981;28;20257;-63
2021/06/13 06:46:11;;;;;;;9.83;2.70;;;;;;;20.37;42.32;98837.06;8416364;28;20192;-63
2021/06/13 06:50:15;;;;;;;9.80;2.93;;;;;;;20.48;41.52;98844.16;8401527;28;20215;-63
2021/06/13 06:54:19;;;;;;;7.57;2.90;;;;;;;20.65;40.78;98846.44;8418784;28;20208;-63
2021/06/13 06:58:22;;;;;;;11.13;3.40;;;;;;;20.52;41.53;98850.88;8410662;28;20243;-63
2021/06/13 07:02:25;;;;;;;10.77;3.23;;;;;;;20.44;41.48;98853.22;8403622;28;20365;-63
2021/06/13 07:06:28;;;;;;;6.50;2.90;;;;;;;20.24;41.87;98862.53;8452061;28;20295;-63
2021/06/13 07:10:32;;;;;;;7.23;2.67;;;;;;;20.05;42.13;98863.81;8452077;28;20227;-61
2021/06/13 07:14:35;;;;;;;10.40;3.20;;;;;;;20.49;40.30;98873.00;8451543;28;20198;-61
2021/06/13 07:18:38;;;;;;;10.77;3.20;;;;;;;20.83;39.41;98872.44;8451573;28;20493;-61
2021/06/13 07:22:41;;;;;;;7.60;2.60;;;;;;;21.26;38.70;98874.53;8452035;28;20233;-63
2021/06/13 07:26:45;;;;;;;7.23;2.77;;;;;;;20.55;39.53;98878.78;8451446;28;20489;-63
2021/06/13 07:30:48;;;;;;;11.07;2.77;;;;;;;20.93;38.62;98877.88;8451429;28;20201;-63
2021/06/13 07:34:51;;;;;;;11.80;2.93;;;;;;;21.64;37.43;98878.75;8451391;28;20198;-63
2021/06/13 07:38:54;;;;;;;9.13;2.77;;;;;;;22.25;36.10;98868.78;8450798;28;20481;-63
2021/06/13 07:42:59;;;;;;;9.37;2.90;;;;;;;21.78;36.53;98870.66;8451113;28;20534;-63
2021/06/13 07:47:03;;;;;;;9.63;2.90;;;;;;;21.62;37.51;98878.03;8450917;28;20496;-63
2021/06/13 07:51:07;;;;;;;10.27;2.80;;;;;;;21.97;37.37;98880.66;8450619;28;20207;-63
2021/06/13 07:55:11;;;;;;;9.60;2.67;;;;;;;22.53;35.80;98885.13;8450852;28;20205;-63
2021/06/13 07:59:15;;;;;;;10.87;2.90;;;;;;;;;;8450587;28;20522;-63
2021/06/13 08:03:17;;;;;;;11.37;3.30;;;;;;;23.40;33.60;98887.78;8422471;28;20222;-64
2021/06/13 08:07:20;;;;;;;10.57;2.87;;;;;;;22.87;34.57;98890.34;8399346;28;20522;-63
2021/06/13 08:11:30;;;;;;;9.37;3.03;;;;;;;22.07;35.46;98886.03;8395625;28;20244;-63
2021/06/13 08:15:34;;;;;;;9.37;3.00;;;;;;;21.51;36.27;98886.75;8387235;28;20195;-63
2021/06/13 08:19:37;;;;;;;5.07;2.37;;;;;;;;;;8413223;28;20215;-64
2021/06/13 08:24:00;;;;;;;6.80;2.60;;;;;;;22.82;45.14;98888.06;8410339;28;20216;-64
2021/06/13 08:28:03;;;;;;;7.87;2.67;;;;;;;23.64;37.65;98888.53;8414629;28;20206;-64
2021/06/13 08:32:07;;;;;;;7.47;2.60;;;;;;;24.17;39.31;98891.91;8408326;28;20216;-64
2021/06/13 08:36:10;;;;;;;10.17;2.70;;;;;;;24.45;36.43;98888.72;8415835;28;20198;-64
2021/06/13 08:40:13;;;;;;;7.93;2.30;;;;;;;24.86;37.37;98892.19;8400982;28;20206;-65
2021/06/13 08:44:17;;;;;;;6.90;2.63;;;;;;;24.96;35.88;98878.00;8415217;28;20226;-64
2021/06/13 08:48:21;;;;;;;7.83;2.50;;;;;;;23.68;37.94;98882.84;8415128;28;20199;-64
2021/06/13 08:52:24;;;;;;;9.03;2.80;;;;;;;24.81;35.19;98889.97;8415385;28;20223;-64
2021/06/13 08:56:27;;;;;;;9.20;2.50;;;;;;;24.43;35.27;98894.13;8415071;28;20203;-64
2021/06/13 09:00:31;;;;;;;7.23;2.53;;;;;;;24.34;35.67;98889.63;8414986;28;20277;-64
2021/06/13 09:04:36;;;;;;;6.57;2.90;;;;;;;24.80;34.65;98893.56;8412615;28;20222;-63
2021/06/13 09:08:41;;;;;;;8.40;2.23;;;;;;;24.85;32.17;98890.53;8415679;28;20531;-64
2021/06/13 09:12:44;;;;;;;8.13;2.33;;;;;;;25.49;34.12;98886.53;8415468;28;20203;-64
2021/06/13 09:16:49;;;;;;;6.20;2.43;;;;;;;25.49;33.50;98887.41;8415077;28;20222;-64
2021/06/13 09:20:53;;;;;;;7.23;2.13;;;;;;;25.70;31.81;98881.06;8414188;28;20382;-64
2021/06/13 09:25:09;;;;;;;7.97;2.93;;;;;;;25.68;32.19;98883.03;8414526;28;20219;-64
2021/06/13 09:29:11;;;;;;;10.83;2.47;;;;;;;25.76;30.31;98869.91;8414170;28;20394;-64
2021/06/13 09:33:17;;;;;;;9.90;2.83;;;;;;;25.68;30.91;98873.28;8414246;28;20205;-65
2021/06/13 09:37:21;;;;;;;9.80;2.40;;;;;;;25.99;30.70;98875.75;8414739;28;20205;-63
2021/06/13 09:41:24;;;;;;;6.93;2.50;;;;;;;26.41;30.65;98869.16;8414168;28;20209;-63
2021/06/13 09:45:27;;;;;;;5.50;2.27;;;;;;;26.04;30.65;98868.16;8414668;28;20217;-63
2021/06/13 09:49:43;;;;;;;7.63;2.23;;;;;;;26.24;29.43;98871.59;8414711;28;20346;-63
2021/06/13 09:53:49;;;;;;;7.60;2.20;;;;;;;26.42;29.05;98871.66;8414402;28;20210;-63
2021/06/13 09:58:08;;;;;;;5.73;2.40;;;;;;;26.56;29.70;98873.00;8407101;28;20196;-63
2021/06/13 10:02:11;;;;;;;7.03;2.17;;;;;;;26.47;28.04;98872.06;8417350;28;20225;-64
2021/06/13 10:06:15;;;;;;;6.17;2.50;;;;;;;26.72;28.95;98877.69;8418963;28;20553;-64
2021/06/13 10:10:43;;;;;;;5.53;2.30;;;;;;;26.83;28.10;98885.44;8420624;28;20243;-63
2021/06/13 10:14:47;;;;;;;6.07;1.90;;;;;;;26.73;29.18;98882.00;8420256;28;20209;-63
2021/06/13 10:18:55;;;;;;;4.80;2.10;;;;;;;26.58;28.31;98876.34;8419948;28;20204;-63
2021/06/13 10:22:58;;;;;;;7.83;2.30;;;;;;;26.75;28.26;98881.84;8419675;28;20611;-64
2021/06/13 10:27:05;;;;;;;8.13;2.60;;;;;;;26.77;28.74;98883.41;8411694;28;20194;-64
2021/06/13 10:31:08;;;;;;;6.77;2.17;;;;;;;26.97;28.56;98881.44;8413359;28;20196;-64
2021/06/13 10:35:12;;;;;;;6.87;2.50;;;;;;;26.91;29.23;98882.03;8402301;28;20474;-64
2021/06/13 10:39:17;;;;;;;5.97;2.33;;;;;;;27.24;28.14;98883.19;8402168;28;20203;-64
2021/06/13 10:43:23;;;;;;;6.30;2.30;;;;;;;27.15;28.07;98881.47;8401624;28;20219;-64
2021/06/13 10:47:28;;;;;;;6.70;2.50;;;;;;;27.02;27.51;98887.16;8401825;28;20401;-64
2021/06/13 10:51:45;;;;;;;7.40;2.13;;;;;;;26.68;27.21;98884.28;8402288;28;20482;-63
2021/06/13 10:55:50;;;;;;;4.87;2.20;;;;;;;26.95;28.79;98883.41;8401893;28;20201;-63
2021/06/13 10:59:56;;;;;;;4.83;2.37;;;;;;;27.27;27.93;98874.94;8413129;28;20198;-63
2021/06/13 11:04:01;;;;;;;8.10;2.23;;;;;;;26.95;27.01;98879.94;8436728;28;20234;-64
2021/06/13 11:08:04;;;;;;;8.67;2.43;;;;;;;26.94;29.14;98879.09;8451909;28;20409;-64
2021/06/13 11:12:39;;;;;;;5.87;2.30;;;;;;;27.31;27.41;98870.16;8451954;28;20273;-63
2021/06/13 11:16:43;;;;;;;10.07;2.57;;;;;;;27.23;28.12;98865.56;8451210;28;20259;-63
2021/06/13 11:20:49;;;;;;;8.67;2.40;;;;;;;27.31;28.44;98867.50;8436378;28;20202;-64
2021/06/13 11:24:55;;;;;;;5.07;2.00;;;;;;;27.49;27.22;98868.31;8417346;28;20293;-64
2021/06/13 11:28:58;;;;;;;5.20;1.97;;;;;;;27.74;26.31;98871.19;8417839;28;20200;-63
2021/06/13 11:33:02;;;;;;;6.17;2.23;;;;;;;27.88;26.99;98869.75;8403305;28;20269;-64
2021/06/13 11:37:22;;;;;;;5.80;2.20;;;;;;;27.87;26.30;98852.97;8400207;28;20207;-64
2021/06/13 11:41:26;;;;;;;7.53;2.03;;;;;;;27.54;26.42;98851.91;8400163;28;20196;-64
2021/06/13 11:45:29;;;;;;;6.70;2.17;;;;;;;27.61;27.01;98846.81;8413867;28;20227;-64
2021/06/13 11:49:45;;;;;;;7.27;2.20;;;;;;;27.62;26.83;98848.47;8398297;28;20196;-63
2021/06/13 11:53:56;;;;;;;5.40;2.17;;;;;;;27.59;27.13;98849.63;8395253;28;20269;-63
2021/06/13 11:57:59;;;;;;;5.87;2.10;;;;;;;27.92;27.13;98849.03;8413853;28;20207;-64
2021/06/13 12:02:05;;;;;;;4.00;1.90;;;;;;;27.74;27.09;98836.59;8416588;28;20210;-64
2021/06/13 12:06:16;;;;;;;4.90;1.97;;;;;;;27.85;26.70;98838.97;8416261;28;20236;-64
2021/06/13 12:10:21;;;;;;;7.37;2.20;;;;;;;27.71;26.26;98844.88;8403385;28;20268;-64
2021/06/13 12:14:26;;;;;;;6.60;2.17;;;;;;;27.48;26.34;98840.03;8416103;28;20216;-63
2021/06/13 12:18:29;;;;;;;5.90;2.10;;;;;;;27.68;25.93;98839.84;8416225;28;20232;-63
2021/06/13 12:22:38;;;;;;;6.10;2.00;;;;;;;27.40;26.46;98836.50;8415869;28;20206;-64
2021/06/13 12:31:01;;;;;;;5.70;2.20;;;;;;;27.43;25.95;98823.72;8415710;28;20404;-63
2021/06/13 12:35:12;;;;;;;5.53;2.23;;;;;;;27.58;26.27;98818.66;8415492;28;20210;-63
2021/06/13 12:39:28;;;;;;;6.30;2.27;;;;;;;27.83;26.15;98835.63;8415979;28;20201;-63
2021/06/13 12:43:36;;;;;;;8.90;2.37;;;;;;;27.61;25.89;98820.19;8421600;28;20521;-64
2021/06/13 12:47:40;;;;;;;6.10;2.00;;;;;;;27.80;26.73;98814.66;8428324;28;20276;-64
2021/06/13 12:51:46;;;;;;;5.50;2.20;;;;;;;27.82;26.59;98819.81;8415353;28;20202;-64
2021/06/13 12:55:54;;;;;;;5.57;2.20;;;;;;;27.85;26.22;98814.16;8415379;28;20221;-64
2021/06/13 12:59:57;;;;;;;5.73;2.43;;;;;;;27.53;26.20;98806.81;8414963;28;20390;-64
2021/06/13 13:04:03;;;;;;;3.87;2.00;;;;;;;27.73;25.03;98818.09;8415024;28;20265;-63
2021/06/13 13:08:17;;;;;;;4.73;2.10;;;;;;;27.59;24.87;98807.06;8397126;28;20258;-63
2021/06/13 13:12:22;;;;;;;3.87;1.80;;;;;;;27.58;26.04;98808.03;8415523;28;20368;-63
2021/06/13 13:16:27;;;;;;;4.80;1.90;;;;;;;27.63;26.13;98808.41;8414985;28;20395;-63
2021/06/13 13:20:32;;;;;;;5.40;2.00;;;;;;;27.71;25.99;98804.97;8414739;28;20397;-63
2021/06/13 13:24:35;;;;;;;5.27;2.20;;;;;;;27.60;25.85;98814.03;8414678;28;20500;-64
2021/06/13 13:28:41;;;;;;;5.10;1.90;;;;;;;27.71;25.64;98818.25;8414684;28;20200;-64
2021/06/13 13:32:53;;;;;;;6.87;2.87;;;;;;;27.88;25.25;98798.75;8414369;28;20199;-64
2021/06/13 13:37:05;;;;;;;4.67;2.23;;;;;;;27.83;26.37;98801.03;8415593;28;20209;-64
2021/06/13 13:41:10;;;;;;;4.17;2.40;;;;;;;27.76;25.59;98804.47;8421739;28;20199;-64
2021/06/13 13:45:22;;;;;;;4.83;2.10;;;;;;;28.03;25.47;98807.00;8440869;28;20223;-64
2021/06/13 13:49:25;;;;;;;5.03;2.20;;;;;;;27.80;26.40;98808.50;8454630;28;20398;-64
2021/06/13 13:53:29;;;;;;;6.20;2.47;;;;;;;27.78;26.39;98803.34;8454451;28;20518;-63
2021/06/13 13:57:42;;;;;;;4.43;1.93;;;;;;;27.98;26.22;98803.97;8454368;28;20205;-64
2021/06/13 14:01:46;;;;;;;5.43;1.90;;;;;;;27.60;26.24;98802.56;8454122;28;20211;-64
2021/06/13 14:05:49;;;;;;;4.90;2.00;;;;;;;27.76;25.92;98805.31;8453961;28;20230;-63
2021/06/13 14:09:52;;;;;;;6.60;1.97;;;;;;;27.85;25.83;98801.72;8454059;28;20469;-64
2021/06/13 14:13:55;;;;;;;4.90;2.13;;;;;;;27.60;26.65;98789.25;8433175;28;20202;-63
2021/06/13 14:17:59;;;;;;;6.93;2.03;;;;;;;27.31;26.24;98790.38;8420023;28;20403;-74
2021/06/13 14:22:05;;;;;;;6.47;2.20;;;;;;;27.39;26.64;98797.59;8420030;28;20206;-73
2021/06/13 14:26:08;;;;;;;8.80;2.00;;;;;;;27.36;26.00;98795.22;8419591;28;20238;-72
2021/06/13 14:30:12;;;;;;;9.00;2.20;;;;;;;27.08;26.72;98787.34;8413812;28;20206;-72
2021/06/13 14:34:16;;;;;;;4.93;1.97;;;;;;;27.15;26.56;98796.41;8419672;28;20205;-71
2021/06/13 14:38:19;;;;;;;5.23;2.00;;;;;;;27.24;26.52;98787.47;8390299;28;20196;-70
2021/06/13 14:42:22;;;;;;;5.77;1.90;;;;;;;27.21;26.79;98787.78;8386856;28;20194;-70
2021/06/13 14:46:25;;;;;;;6.23;1.87;;;;;;;27.20;26.28;98786.13;8449324;28;20235;-70
2021/06/13 14:50:32;;;;;;;3.37;1.90;;;;;;;27.06;26.88;98773.38;8452923;28;20198;-71
2021/06/13 14:54:34;;;;;;;7.20;2.13;;;;;;;26.86;25.63;98788.66;8452568;28;20214;-71
2021/06/13 14:58:37;;;;;;;4.40;1.90;;;;;;;26.67;26.43;98786.97;8452312;28;20206;-72
2021/06/13 15:02:40;;;;;;;5.57;1.90;;;;;;;26.70;27.17;98778.72;8452455;28;20206;-71
2021/06/13 15:06:44;;;;;;;4.67;1.70;;;;;;;26.87;28.03;98774.38;8451992;28;20236;-70
2021/06/13 15:10:47;;;;;;;6.23;2.20;;;;;;;26.69;27.10;98777.88;8451747;28;20238;-70
2021/06/13 15:14:51;;;;;;;6.10;2.30;;;;;;;26.74;27.50;98772.09;8412249;28;20537;-70
2021/06/13 15:18:53;;;;;;;5.13;2.00;;;;;;;26.69;27.10;98769.06;8384938;28;20200;-69
2021/06/13 15:22:58;;;;;;;4.60;1.90;;;;;;;26.63;26.45;98769.66;8384720;28;20272;-68
2021/06/13 15:27:02;;;;;;;4.83;2.30;;;;;;;26.68;27.24;98767.41;8384908;28;20566;-77
2021/06/13 15:31:05;;;;;;;33.37;3.83;;;;;;;26.52;27.24;98774.19;8386845;28;20199;-78
2021/06/13 15:35:09;;;;;;;7.90;2.73;;;;;;;26.53;27.83;98751.13;8385036;28;20207;-77
2021/06/13 15:39:15;;;;;;;5.53;2.30;;;;;;;26.29;27.58;98755.19;8384482;28;20201;-77
2021/06/13 15:43:19;;;;;;;6.23;2.27;;;;;;;26.08;28.47;98755.47;8392514;28;20475;-77
2021/06/13 15:47:22;;;;;;;4.83;2.00;;;;;;;26.10;27.35;98761.44;8399962;28;20221;-77
2021/06/13 15:51:25;;;;;;;5.30;2.17;;;;;;;25.88;27.40;98757.31;8399758;28;20212;-78
2021/06/13 15:55:34;;;;;;;4.40;2.07;;;;;;;25.80;27.57;98745.75;8399729;28;20391;-79
2021/06/13 15:59:42;;;;;;;4.57;2.20;;;;;;;25.94;28.16;98745.31;8399805;28;20191;-76
2021/06/13 16:03:45;;;;;;;6.17;2.50;;;;;;;25.74;27.71;98741.88;8391767;28;20198;-77
2021/06/13 16:07:48;;;;;;;7.33;2.37;;;;;;;25.58;27.47;98741.66;8383507;28;20228;-77
2021/06/13 16:11:52;;;;;;;7.17;2.23;;;;;;;25.62;28.24;98743.88;8384568;28;20237;-76
2021/06/13 16:16:00;;;;;;;5.20;2.17;;;;;;;25.59;28.46;98745.97;8384851;28;20389;-78
2021/06/13 16:20:03;;;;;;;3.93;2.20;;;;;;;25.54;28.14;98741.13;8383462;28;20226;-76
2021/06/13 16:24:06;;;;;;;5.27;2.23;;;;;;;25.48;28.49;98739.03;8383323;28;20241;-78
2021/06/13 16:28:10;;;;;;;5.33;1.90;;;;;;;25.46;28.38;98741.84;8383168;28;20200;-80
2021/06/13 16:32:13;;;;;;;4.57;2.20;;;;;;;25.29;28.62;98740.75;8382812;28;20201;-76
2021/06/13 16:36:16;;;;;;;6.93;1.97;;;;;;;25.28;27.07;98739.06;8382893;28;20227;-77
2021/06/13 16:40:19;;;;;;;13.17;2.43;;;;;;;25.29;28.73;98729.31;8382826;28;20206;-77
2021/06/13 16:44:26;;;;;;;4.93;1.97;;;;;;;25.25;29.27;98735.91;8408226;28;20227;-77
2021/06/13 16:48:28;;;;;;;6.27;2.07;;;;;;;25.11;29.19;98735.34;8441218;28;20393;-78
2021/06/13 16:52:32;;;;;;;11.43;2.40;;;;;;;25.08;27.93;98742.72;8403851;28;20200;-77
2021/06/13 16:56:53;;;;;;;5.27;2.20;;;;;;;25.00;28.07;98742.56;8398229;28;20226;-78
2021/06/13 17:00:57;;;;;;;4.60;2.30;;;;;;;24.77;28.70;98743.72;8399858;28;20200;-78
2021/06/13 17:05:00;;;;;;;5.67;2.50;;;;;;;24.80;28.64;98741.75;8397689;28;20220;-77
2021/06/13 17:09:04;;;;;;;5.13;2.67;;;;;;;24.64;28.83;98750.28;8394948;28;20224;-78
2021/06/13 17:13:06;;;;;;;4.77;2.30;;;;;;;24.53;28.54;98744.13;8380857;28;20208;-78
2021/06/13 17:17:11;;;;;;;8.03;2.40;;;;;;;24.49;29.04;98739.22;8398306;28;20202;-77
2021/06/13 17:21:15;;;;;;;4.17;2.20;;;;;;;24.27;29.13;98745.56;8386458;28;20203;-76
2021/06/13 17:25:22;;;;;;;3.93;1.90;;;;;;;24.16;29.18;98744.72;8381602;28;20230;-74
2021/06/13 17:29:25;;;;;;;4.03;2.20;;;;;;;24.24;30.17;98741.41;8381605;28;20200;-78
2021/06/13 17:33:30;;;;;;;6.10;2.17;;;;;;;24.13;29.63;98752.09;8381386;28;20199;-80
2021/06/13 17:37:33;;;;;;;6.20;2.47;;;;;;;23.84;31.50;98757.25;8381720;28;20207;-83
2021/06/13 17:41:38;;;;;;;4.37;1.90;;;;;;;23.75;30.62;98758.88;8381899;28;20470;-78
2021/06/13 17:45:41;;;;;;;4.30;1.93;;;;;;;23.85;30.76;98762.44;8429107;28;20225;-79
2021/06/13 17:49:47;;;;;;;5.47;2.20;;;;;;;23.70;30.32;98764.53;8448227;28;20205;-79
2021/06/13 17:53:50;;;;;;;5.30;1.83;;;;;;;23.75;30.66;98761.53;8448689;28;20214;-80
2021/06/13 17:57:52;;;;;;;6.57;2.07;;;;;;;23.67;31.60;98766.66;8395930;28;20522;-79
2021/06/13 18:01:55;;;;;;;5.33;2.50;;;;;;;23.49;32.34;98758.47;8381490;28;20392;-80
2021/06/13 18:05:59;;;;;;;4.13;2.20;;;;;;;23.61;32.15;98752.97;8381732;28;20245;-76
2021/06/13 18:10:02;;;;;;;5.23;2.20;;;;;;;23.54;30.94;98751.81;8392588;28;20234;-77
2021/06/13 18:14:06;;;;;;;7.13;2.60;;;;;;;23.39;31.80;98751.31;8380807;28;20385;-77
2021/06/13 18:18:09;;;;;;;5.90;2.10;;;;;;;23.45;32.43;98747.31;8385722;28;20211;-77
2021/06/13 18:22:14;;;;;;;6.17;2.47;;;;;;;23.34;32.38;98744.75;8380627;28;20202;-79
2021/06/13 18:26:17;;;;;;;4.93;2.80;;;;;;;23.37;32.82;98752.44;8386559;28;20445;-71
2021/06/13 18:30:21;;;;;;;6.30;2.50;;;;;;;23.19;32.82;98749.53;8387146;28;20375;-83
2021/06/13 18:34:24;;;;;;;5.37;2.37;;;;;;;23.15;32.64;98745.47;8386620;28;20214;-83
2021/06/13 18:38:30;;;;;;;3.93;2.10;;;;;;;23.08;33.45;98752.25;8385850;28;20275;-83
2021/06/13 18:42:33;;;;;;;3.50;2.17;;;;;;;22.93;33.13;98756.97;8386194;28;20229;-85
2021/06/13 18:46:36;;;;;;;5.33;2.40;;;;;;;22.90;32.83;98754.56;8449169;28;20324;-87
2021/06/13 18:50:39;;;;;;;4.37;2.20;;;;;;;22.80;33.26;98763.25;8452576;28;20519;-87
2021/06/13 18:54:43;;;;;;;6.07;2.20;;;;;;;22.71;33.28;98761.34;8453595;28;20199;-87
2021/06/13 18:58:46;;;;;;;6.57;2.40;;;;;;;22.74;33.61;98766.38;8453445;28;20202;-83
2021/06/13 19:02:49;;;;;;;5.97;2.53;;;;;;;22.61;34.58;98763.91;8452253;28;20208;-83
2021/06/13 19:06:51;;;;;;;4.33;2.40;;;;;;;22.55;34.47;98758.31;8451973;28;20236;-83
2021/06/13 19:10:56;;;;;;;5.03;2.60;;;;;;;22.52;34.76;98756.72;8451785;28;20237;-84
2021/06/13 19:14:58;;;;;;;4.37;2.00;;;;;;;22.49;34.90;98758.81;8451868;28;20199;-83
2021/06/13 19:19:01;;;;;;;5.40;2.70;;;;;;;22.31;35.15;98754.03;8451993;28;20363;-83